Time;durP1;ratioP1;P1;durP2;ratioP2;P2;SDS_P1;SDS_P2;PMS_P1;PMS_P2;Temp;Humidity;BMP_temperature;BMP_pressure;BME280_temperature;BME280_humidity;BME280_pressure;Samples;Min_cycle;Max_cycle;Signal;HPM_P1;HPM_P2
2021/03/25 00:01:54;;;;;;;5.32;3.13;;;7.50;45.70;;;;;;5074445;28;20535;-74
2021/03/25 00:04:20;;;;;;;5.38;2.55;;;7.50;45.80;;;;;;5084285;28;20039;-73
2021/03/25 00:06:50;;;;;;;6.90;3.22;;;7.50;45.90;;;;;;5071318;28;20086;-75
2021/03/25 00:09:26;;;;;;;6.75;2.78;;;7.40;46.00;;;;;;5072422;28;20385;-75
2021/03/25 00:11:52;;;;;;;10.25;2.97;;;7.40;46.00;;;;;;5072532;28;20175;-75
2021/03/25 00:14:19;;;;;;;5.50;3.33;;;7.40;46.20;;;;;;5072740;28;20055;-75
2021/03/25 00:16:45;;;;;;;7.32;3.17;;;7.40;46.10;;;;;;5072510;28;20039;-74
2021/03/25 00:19:11;;;;;;;6.53;3.53;;;7.40;46.00;;;;;;5071349;28;20044;-74
2021/03/25 00:21:38;;;;;;;6.28;3.28;;;7.40;46.00;;;;;;5072368;28;20037;-74
2021/03/25 00:24:05;;;;;;;7.63;3.17;;;7.40;46.10;;;;;;5071206;28;20025;-74
2021/03/25 00:26:32;;;;;;;7.35;3.58;;;7.40;46.00;;;;;;5072147;28;20043;-73
2021/03/25 00:28:58;;;;;;;6.55;2.53;;;7.40;46.00;;;;;;5072355;28;20400;-76
2021/03/25 00:31:24;;;;;;;7.25;4.28;;;7.40;46.10;;;;;;5054508;28;20035;-75
2021/03/25 00:33:51;;;;;;;7.55;3.33;;;7.40;46.10;;;;;;5072534;28;20066;-73
2021/03/25 00:36:17;;;;;;;5.38;3.08;;;7.40;46.20;;;;;;5076576;28;20086;-74
2021/03/25 00:38:43;;;;;;;5.85;3.28;;;7.40;46.10;;;;;;5076461;28;20055;-81
2021/03/25 00:41:09;;;;;;;7.65;3.15;;;7.50;46.10;;;;;;5076643;28;20041;-76
2021/03/25 00:43:35;;;;;;;6.53;3.20;;;7.50;46.10;;;;;;5076326;28;20032;-75
2021/03/25 00:46:01;;;;;;;4.22;2.72;;;7.50;46.10;;;;;;5076175;28;20039;-75
2021/03/25 00:48:27;;;;;;;4.57;2.80;;;7.50;46.20;;;;;;5075914;28;20515;-76
2021/03/25 00:50:57;;;;;;;5.80;3.10;;;7.50;46.10;;;;;;5076244;28;20043;-76
2021/03/25 00:53:33;;;;;;;5.68;2.67;;;7.50;46.00;;;;;;5075811;28;20496;-75
2021/03/25 00:56:00;;;;;;;9.15;3.20;;;7.50;46.00;;;;;;5091395;28;20067;-76
2021/03/25 00:58:26;;;;;;;4.95;3.05;;;7.60;45.90;;;;;;5075731;28;20074;-76
2021/03/25 01:00:54;;;;;;;5.95;2.58;;;7.50;45.80;;;;;;5074990;28;20515;-75
2021/03/25 01:03:24;;;;;;;3.70;2.40;;;7.50;45.80;;;;;;5079109;28;20718;-75
2021/03/25 01:05:50;;;;;;;6.72;2.83;;;7.50;45.80;;;;;;5085528;28;20093;-74
2021/03/25 01:08:16;;;;;;;4.20;2.72;;;7.60;45.80;;;;;;5057941;28;20037;-77
2021/03/25 01:10:48;;;;;;;7.30;3.17;;;7.60;45.80;;;;;;5075616;28;20036;-76
2021/03/25 01:13:23;;;;;;;5.32;2.65;;;7.50;45.80;;;;;;5074357;28;20132;-75
2021/03/25 01:15:51;;;;;;;7.07;3.20;;;7.50;45.80;;;;;;5074449;28;20123;-74
2021/03/25 01:18:18;;;;;;;4.18;2.63;;;7.50;45.80;;;;;;5075329;28;20040;-74
2021/03/25 01:20:44;;;;;;;5.90;2.78;;;7.50;45.80;;;;;;5075253;28;20044;-76
2021/03/25 01:23:12;;;;;;;6.63;3.30;;;7.50;45.80;;;;;;5073767;28;20067;-74
2021/03/25 01:25:38;;;;;;;5.10;3.08;;;7.50;45.80;;;;;;5075405;28;20037;-76
2021/03/25 01:28:07;;;;;;;5.70;3.38;;;7.50;45.80;;;;;;5074071;28;20436;-75
2021/03/25 01:30:36;;;;;;;8.43;3.58;;;7.50;45.80;;;;;;5091266;28;20039;-75
2021/03/25 01:33:06;;;;;;;5.85;3.03;;;7.50;45.70;;;;;;5075221;28;20516;-74
2021/03/25 01:35:35;;;;;;;6.70;3.10;;;7.50;45.70;;;;;;5090783;28;20459;-75
2021/03/25 01:38:01;;;;;;;4.72;2.47;;;7.50;45.70;;;;;;5075223;28;20531;-74
2021/03/25 01:40:36;;;;;;;5.60;2.88;;;7.40;45.60;;;;;;5090847;28;20181;-75
2021/03/25 01:43:20;;;;;;;4.83;2.40;;;7.40;45.60;;;;;;5057514;28;20507;-75
2021/03/25 01:45:53;;;;;;;4.30;2.33;;;7.40;45.60;;;;;;5073473;28;20485;-74
2021/03/25 01:48:24;;;;;;;2.88;2.15;;;7.30;45.50;;;;;;5073989;28;20123;-74
2021/03/25 01:50:52;;;;;;;3.92;2.45;;;7.40;45.60;;;;;;5074165;28;20405;-75
2021/03/25 01:53:33;;;;;;;8.02;3.10;;;7.30;45.80;;;;;;5090415;28;20037;-74
2021/03/25 01:56:25;;;;;;;5.15;2.50;;;7.30;45.90;;;;;;5073166;28;20051;-74
2021/03/25 01:59:03;;;;;;;5.63;2.50;;;7.30;46.00;;;;;;5049522;28;20040;-76
2021/03/25 02:01:42;;;;;;;5.05;2.30;;;7.30;45.90;;;;;;5075008;28;20044;-74
2021/03/25 02:04:18;;;;;;;3.25;2.35;;;7.20;46.00;;;;;;5077422;28;20062;-74
2021/03/25 02:07:04;;;;;;;5.63;2.55;;;7.20;45.80;;;;;;5083043;28;20032;-75
2021/03/25 02:09:47;;;;;;;4.78;2.70;;;7.20;46.00;;;;;;5073206;28;20033;-76
2021/03/25 02:12:55;;;;;;;4.30;2.40;;;7.20;46.00;;;;;;5074270;28;20036;-76
2021/03/25 02:15:39;;;;;;;4.93;2.22;;;7.10;46.00;;;;;;5056457;28;20089;-75
2021/03/25 02:18:14;;;;;;;3.25;2.28;;;7.10;46.00;;;;;;5073597;28;20393;-75
2021/03/25 02:20:51;;;;;;;4.15;1.95;;;7.10;46.10;;;;;;5074345;28;20501;-75
2021/03/25 02:23:44;;;;;;;4.88;2.20;;;7.00;46.10;;;;;;5074115;28;20043;-74
2021/03/25 02:26:20;;;;;;;4.80;2.28;;;7.00;46.30;;;;;;5074349;28;20045;-73
2021/03/25 02:29:26;;;;;;;4.72;2.20;;;7.00;46.50;;;;;;5091134;28;20070;-74
2021/03/25 02:32:02;;;;;;;5.10;2.40;;;7.00;46.50;;;;;;5074386;28;20040;-74
2021/03/25 02:34:33;;;;;;;4.93;2.70;;;6.90;46.50;;;;;;5056767;28;20396;-73
2021/03/25 02:37:12;;;;;;;4.97;3.22;;;6.90;46.50;;;;;;5056470;28;20044;-75
2021/03/25 02:39:55;;;;;;;4.03;2.20;;;6.90;46.70;;;;;;5072647;28;20059;-74
2021/03/25 02:42:43;;;;;;;4.72;2.70;;;6.80;46.70;;;;;;5073520;28;20123;-73
2021/03/25 02:45:40;;;;;;;5.90;2.55;;;6.80;46.80;;;;;;5072649;28;20464;-74
2021/03/25 02:48:14;;;;;;;6.43;3.00;;;6.80;46.80;;;;;;5073181;28;20139;-75
2021/03/25 02:50:45;;;;;;;2.70;2.13;;;6.80;46.80;;;;;;5073752;28;20480;-74
2021/03/25 02:53:25;;;;;;;4.20;2.67;;;6.80;46.80;;;;;;5073947;28;20024;-74
2021/03/25 02:55:57;;;;;;;4.35;2.78;;;6.70;46.80;;;;;;5073647;28;20059;-75
2021/03/25 02:58:29;;;;;;;4.60;2.72;;;6.70;46.90;;;;;;5072411;28;20053;-75
2021/03/25 03:01:00;;;;;;;6.60;2.53;;;6.70;47.00;;;;;;5073305;28;20044;-75
2021/03/25 03:03:33;;;;;;;5.32;2.47;;;6.70;47.10;;;;;;5071769;28;20037;-75
2021/03/25 03:06:34;;;;;;;4.38;2.38;;;6.70;47.10;;;;;;5082847;28;20183;-75
2021/03/25 03:09:13;;;;;;;5.13;2.40;;;6.60;47.10;;;;;;5058054;28;20460;-77
2021/03/25 03:11:48;;;;;;;4.97;2.78;;;6.60;47.20;;;;;;5072100;28;20531;-75
2021/03/25 03:14:29;;;;;;;3.53;2.20;;;6.60;47.30;;;;;;5072375;28;20029;-75
2021/03/25 03:17:03;;;;;;;4.53;2.50;;;6.60;47.40;;;;;;5084333;28;20488;-75
2021/03/25 03:19:34;;;;;;;2.72;2.33;;;6.50;47.50;;;;;;5083298;28;20135;-76
2021/03/25 03:22:07;;;;;;;;;;;6.50;47.60;;;;;;5072708;28;20093;-75
2021/03/25 03:24:53;;;;;;;;;;;6.50;47.60;;;;;;5077614;28;19912;-76
2021/03/25 03:27:37;;;;;;;5.10;2.50;;;6.40;47.80;;;;;;5075505;28;20007;-74
2021/03/25 03:30:16;;;;;;;9.00;2.60;;;6.40;47.80;;;;;;5082015;28;20413;-75
2021/03/25 03:33:26;;;;;;;6.70;3.22;;;6.40;48.00;;;;;;5071375;28;20072;-78
2021/03/25 03:36:00;;;;;;;5.78;2.60;;;6.40;48.10;;;;;;5059598;28;20040;-77
2021/03/25 03:38:38;;;;;;;3.17;2.70;;;6.40;48.30;;;;;;5071620;28;20492;-76
2021/03/25 03:41:28;;;;;;;7.85;2.75;;;6.40;48.20;;;;;;5071634;28;20109;-76
2021/03/25 03:44:00;;;;;;;3.90;2.45;;;6.40;48.20;;;;;;5071388;28;20043;-76
2021/03/25 03:46:29;;;;;;;4.25;2.88;;;6.40;48.20;;;;;;5071207;28;20048;-77
2021/03/25 03:49:15;;;;;;;4.25;2.95;;;6.40;48.30;;;;;;5054899;28;20059;-79
2021/03/25 03:51:54;;;;;;;5.55;2.58;;;6.40;48.40;;;;;;5054930;28;20032;-79
2021/03/25 03:54:20;;;;;;;6.93;3.30;;;6.40;48.60;;;;;;5071658;28;20041;-77
2021/03/25 03:57:15;;;;;;;5.38;3.00;;;6.40;48.60;;;;;;5071087;28;20102;-78
2021/03/25 04:00:14;;;;;;;5.70;3.25;;;6.40;48.70;;;;;;5055913;28;20078;-90
2021/03/25 04:03:25;;;;;;;5.63;3.00;;;6.40;48.70;;;;;;5068366;28;20515;-82
2021/03/25 04:06:06;;;;;;;5.78;3.78;;;6.40;48.70;;;;;;5072453;28;20040;-85
2021/03/25 04:09:13;;;;;;;5.10;3.28;;;6.40;48.70;;;;;;5084002;28;20055;-84
2021/03/25 04:11:57;;;;;;;7.57;3.42;;;6.50;48.80;;;;;;5090001;28;20400;-82
2021/03/25 04:14:34;;;;;;;6.90;4.10;;;6.50;48.70;;;;;;5071426;28;20032;-79
2021/03/25 04:17:10;;;;;;;10.50;4.00;;;6.50;48.70;;;;;;5071305;28;20041;-77
2021/03/25 04:19:45;;;;;;;9.55;3.85;;;6.60;48.60;;;;;;5072530;28;20405;-78
2021/03/25 04:22:45;;;;;;;11.32;3.90;;;6.70;48.60;;;;;;5063836;28;20131;-77
2021/03/25 04:25:36;;;;;;;5.90;3.90;;;6.70;48.40;;;;;;5073038;28;20036;-78
2021/03/25 04:28:21;;;;;;;10.32;3.92;;;6.80;48.30;;;;;;5077496;28;20063;-76
2021/03/25 04:30:52;;;;;;;10.32;4.38;;;6.90;48.20;;;;;;5079723;28;20043;-83
2021/03/25 04:33:21;;;;;;;6.57;3.97;;;7.00;48.20;;;;;;5097312;28;20036;-79
2021/03/25 04:35:47;;;;;;;7.32;4.65;;;7.00;48.00;;;;;;5072786;28;20040;-84
2021/03/25 04:38:20;;;;;;;8.50;4.43;;;7.00;48.00;;;;;;5073038;28;20041;-82
2021/03/25 04:40:46;;;;;;;8.60;4.22;;;7.10;48.00;;;;;;5071096;28;20036;-82
2021/03/25 04:43:21;;;;;;;7.53;4.25;;;7.10;47.90;;;;;;5087387;28;20078;-83
2021/03/25 04:46:21;;;;;;;10.03;5.07;;;7.10;47.80;;;;;;5072130;28;20068;-82
2021/03/25 04:48:48;;;;;;;8.38;4.35;;;7.20;47.80;;;;;;5071505;28;20040;-81
2021/03/25 04:51:21;;;;;;;9.93;4.68;;;7.20;47.70;;;;;;5070714;28;20036;-80
2021/03/25 04:53:49;;;;;;;8.73;4.03;;;7.30;47.60;;;;;;5072290;28;20408;-80
2021/03/25 04:56:23;;;;;;;9.98;4.78;;;7.30;47.60;;;;;;5071662;28;20059;-80
2021/03/25 04:58:53;;;;;;;7.15;4.03;;;7.30;47.70;;;;;;5072364;28;20059;-80
2021/03/25 05:01:26;;;;;;;9.07;4.55;;;7.30;47.50;;;;;;5072023;28;20040;-80
2021/03/25 05:03:56;;;;;;;6.68;4.20;;;7.40;47.60;;;;;;5072098;28;20119;-80
2021/03/25 05:06:53;;;;;;;7.90;3.72;;;7.40;48.10;;;;;;5072146;28;20040;-81
2021/03/25 05:09:21;;;;;;;6.38;3.90;;;7.50;47.40;;;;;;5070902;28;20063;-79
2021/03/25 05:11:48;;;;;;;7.20;3.72;;;7.60;47.30;;;;;;5072220;28;20503;-81
2021/03/25 05:14:26;;;;;;;8.30;3.78;;;7.70;47.10;;;;;;5071814;28;20044;-81
2021/03/25 05:17:05;;;;;;;11.80;3.92;;;7.80;47.00;;;;;;5071603;28;20082;-80
2021/03/25 05:19:47;;;;;;;8.70;3.80;;;7.90;47.00;;;;;;5072123;28;20053;-78
2021/03/25 05:22:39;;;;;;;4.57;3.22;;;7.90;47.00;;;;;;5072488;28;20566;-77
2021/03/25 05:25:26;;;;;;;7.68;3.50;;;8.00;47.00;;;;;;5075587;28;20028;-81
2021/03/25 05:28:01;;;;;;;9.82;3.58;;;8.10;46.90;;;;;;5075622;28;20033;-80
2021/03/25 05:30:34;;;;;;;7.37;3.73;;;8.30;46.90;;;;;;5075663;28;20094;-79
2021/03/25 05:33:09;;;;;;;7.03;2.97;;;8.60;46.90;;;;;;5074986;28;20488;-78
2021/03/25 05:35:42;;;;;;;7.70;3.20;;;9.00;47.00;;;;;;5075705;28;20036;-80
2021/03/25 05:38:09;;;;;;;6.88;3.35;;;9.40;46.60;;;;;;5074579;28;20044;-78
2021/03/25 05:40:39;;;;;;;8.73;3.45;;;9.70;46.20;;;;;;5074887;28;20094;-72
2021/03/25 05:43:21;;;;;;;9.32;3.30;;;10.10;45.90;;;;;;5075159;28;20047;-74
2021/03/25 05:46:21;;;;;;;8.95;3.47;;;10.50;45.80;;;;;;5074681;28;20107;-72
2021/03/25 05:49:10;;;;;;;7.88;3.67;;;11.00;45.90;;;;;;5074725;28;20043;-73
2021/03/25 05:51:59;;;;;;;5.90;3.35;;;11.30;45.90;;;;;;5074927;28;20044;-76
2021/03/25 05:54:40;;;;;;;4.05;2.55;;;11.70;46.00;;;;;;5073650;28;20037;-79
2021/03/25 05:57:24;;;;;;;3.95;2.67;;;12.20;45.60;;;;;;5074649;28;20049;-78
2021/03/25 06:00:02;;;;;;;5.70;2.75;;;12.60;44.30;;;;;;5056951;28;20083;-82
2021/03/25 06:02:50;;;;;;;7.45;3.00;;;13.00;44.00;;;;;;5074993;28;20047;-78
2021/03/25 06:05:16;;;;;;;6.15;3.20;;;13.50;43.50;;;;;;5074767;28;20094;-75
2021/03/25 06:07:54;;;;;;;7.72;2.95;;;13.90;42.10;;;;;;5074541;28;20504;-81
2021/03/25 06:10:27;;;;;;;7.72;3.53;;;14.20;40.30;;;;;;5057084;28;20040;-80
2021/03/25 06:12:56;;;;;;;7.32;3.95;;;14.50;41.00;;;;;;5074668;28;20050;-75
2021/03/25 06:15:47;;;;;;;8.77;3.58;;;15.00;40.80;;;;;;5073789;28;20063;-80
2021/03/25 06:18:40;;;;;;;4.75;3.10;;;15.30;40.70;;;;;;5074899;28;20122;-75
2021/03/25 06:21:19;;;;;;;4.63;2.95;;;15.70;40.00;;;;;;5074167;28;20401;-70
2021/03/25 06:23:50;;;;;;;4.43;3.10;;;16.10;40.20;;;;;;5074084;28;20037;-69
2021/03/25 06:26:19;;;;;;;5.88;3.70;;;16.50;39.90;;;;;;5074016;28;20041;-70
2021/03/25 06:28:55;;;;;;;6.88;3.30;;;16.80;39.00;;;;;;5074272;28;20036;-72
2021/03/25 06:31:44;;;;;;;7.60;3.38;;;17.30;41.60;;;;;;5074083;28;20123;-69
2021/03/25 06:34:14;;;;;;;11.60;3.65;;;17.80;41.80;;;;;;5074521;28;20460;-70
2021/03/25 06:37:00;;;;;;;5.70;3.10;;;18.20;40.30;;;;;;5073562;28;20042;-72
2021/03/25 06:39:48;;;;;;;8.70;3.20;;;18.60;39.50;;;;;;5074708;28;20045;-72
2021/03/25 06:42:18;;;;;;;5.57;3.08;;;19.00;38.10;;;;;;5073498;28;20042;-70
2021/03/25 06:45:02;;;;;;;8.80;3.53;;;19.30;38.70;;;;;;5073540;28;20045;-73
2021/03/25 06:47:49;;;;;;;9.27;3.08;;;19.60;38.30;;;;;;5074151;28;20137;-71
2021/03/25 06:50:25;;;;;;;7.85;3.50;;;20.00;38.70;;;;;;5073649;28;20033;-72
2021/03/25 06:52:57;;;;;;;6.60;3.20;;;20.40;36.70;;;;;;5055609;28;20041;-71
2021/03/25 06:55:26;;;;;;;6.97;2.97;;;20.70;36.60;;;;;;5073452;28;20033;-71
2021/03/25 06:58:06;;;;;;;6.03;3.25;;;20.90;37.30;;;;;;5074027;28;20455;-71
2021/03/25 07:00:40;;;;;;;6.78;3.65;;;21.20;37.00;;;;;;5073625;28;20593;-75
2021/03/25 07:03:12;;;;;;;6.60;3.53;;;21.50;36.90;;;;;;5073371;28;20140;-73
2021/03/25 07:05:39;;;;;;;8.65;3.63;;;21.70;36.50;;;;;;5072419;28;20037;-76
2021/03/25 07:08:13;;;;;;;7.95;3.20;;;21.80;35.50;;;;;;5073061;28;20556;-75
2021/03/25 07:10:40;;;;;;;7.35;3.53;;;21.90;35.90;;;;;;5073683;28;20176;-74
2021/03/25 07:13:07;;;;;;;8.48;3.63;;;21.90;36.80;;;;;;5073501;28;20440;-71
2021/03/25 07:15:37;;;;;;;6.68;3.50;;;22.00;35.40;;;;;;5072031;28;20094;-70
2021/03/25 07:18:23;;;;;;;5.55;3.20;;;22.00;34.80;;;;;;5073447;28;20048;-75
2021/03/25 07:21:18;;;;;;;4.85;3.40;;;22.00;35.50;;;;;;5072940;28;20562;-76
2021/03/25 07:23:45;;;;;;;5.97;2.95;;;22.00;35.50;;;;;;5073441;28;20028;-75
2021/03/25 07:26:29;;;;;;;5.38;2.83;;;21.90;35.10;;;;;;5073224;28;20052;-77
2021/03/25 07:29:05;;;;;;;6.20;3.15;;;21.90;35.30;;;;;;5072932;28;20036;-76
2021/03/25 07:32:02;;;;;;;4.55;3.05;;;21.80;34.30;;;;;;5073479;28;20028;-76
2021/03/25 07:34:34;;;;;;;;;;;21.70;34.80;;;;;;5072195;28;20076;-74
2021/03/25 07:37:02;;;;;;;9.90;3.28;;;21.50;35.10;;;;;;5072587;28;20281;-74
2021/03/25 07:39:37;;;;;;;8.63;3.28;;;21.40;35.50;;;;;;5071437;28;20459;-74
2021/03/25 07:42:04;;;;;;;9.15;3.92;;;21.30;35.20;;;;;;5072977;28;20047;-74
2021/03/25 07:44:43;;;;;;;10.07;3.13;;;21.20;34.50;;;;;;5072246;28;20040;-73
2021/03/25 07:47:31;;;;;;;7.10;3.10;;;21.00;36.10;;;;;;5073061;28;20501;-76
2021/03/25 07:50:27;;;;;;;6.35;3.40;;;20.90;36.80;;;;;;5072298;28;20123;-76
2021/03/25 07:52:54;;;;;;;11.77;4.15;;;20.80;36.70;;;;;;5072280;28;20474;-76
2021/03/25 07:55:33;;;;;;;9.68;3.70;;;20.70;36.70;;;;;;5071246;28;20401;-78
2021/03/25 07:57:59;;;;;;;6.68;4.05;;;20.70;36.50;;;;;;5071807;28;20417;-76
2021/03/25 08:00:32;;;;;;;11.52;4.40;;;20.70;36.00;;;;;;5070847;28;20036;-75
2021/03/25 08:03:18;;;;;;;7.35;3.50;;;20.70;36.00;;;;;;5072408;28;20212;-74
2021/03/25 08:05:46;;;;;;;7.95;3.67;;;20.60;36.90;;;;;;5072033;28;20519;-72
2021/03/25 08:08:26;;;;;;;9.10;3.60;;;20.60;36.30;;;;;;5072748;28;20074;-72
2021/03/25 08:11:16;;;;;;;16.45;4.80;;;20.60;36.40;;;;;;5054179;28;20056;-71
2021/03/25 08:13:52;;;;;;;8.27;4.13;;;20.60;35.70;;;;;;5072655;28;20120;-72
2021/03/25 08:16:19;;;;;;;10.05;4.15;;;20.60;35.80;;;;;;5072755;28;20485;-71
2021/03/25 08:19:06;;;;;;;8.82;4.47;;;20.70;35.50;;;;;;5072213;28;20033;-73
2021/03/25 08:21:39;;;;;;;13.30;4.72;;;20.40;35.20;;;;;;5072477;28;20089;-71
2021/03/25 08:24:11;;;;;;;9.07;4.40;;;20.40;35.30;;;;;;5072658;28;20036;-72
2021/03/25 08:26:53;;;;;;;11.68;4.70;;;20.40;35.20;;;;;;5071787;28;20501;-72
2021/03/25 08:29:43;;;;;;;11.50;4.85;;;20.40;35.00;;;;;;5072460;28;20418;-71
2021/03/25 08:32:12;;;;;;;11.68;4.68;;;20.50;34.80;;;;;;5072234;28;20040;-72
2021/03/25 08:34:57;;;;;;;9.32;4.75;;;20.50;34.60;;;;;;5072226;28;20036;-72
2021/03/25 08:37:43;;;;;;;14.35;4.68;;;20.60;34.80;;;;;;5072003;28;20044;-73
2021/03/25 08:40:38;;;;;;;14.57;4.72;;;20.60;35.60;;;;;;5072301;28;20032;-74
2021/03/25 08:43:06;;;;;;;11.60;4.38;;;20.60;35.10;;;;;;5048461;28;20425;-72
2021/03/25 08:45:57;;;;;;;9.30;5.40;;;20.60;34.50;;;;;;5072368;28;20043;-72
2021/03/25 08:48:44;;;;;;;10.50;5.15;;;20.50;34.40;;;;;;5071919;28;20090;-80
2021/03/25 08:51:18;;;;;;;9.75;4.50;;;20.40;34.10;;;;;;5073990;28;20043;-86
2021/03/25 08:53:51;;;;;;;10.50;4.45;;;20.40;34.70;;;;;;5072818;28;20036;-78
2021/03/25 08:56:41;;;;;;;12.32;4.63;;;20.40;34.90;;;;;;5071611;28;20044;-77
2021/03/25 08:59:26;;;;;;;9.75;4.35;;;20.30;35.20;;;;;;5076408;28;20394;-77
2021/03/25 09:02:10;;;;;;;13.23;4.40;;;20.20;35.20;;;;;;5074741;28;20167;-77
2021/03/25 09:05:06;;;;;;;10.07;4.38;;;20.20;35.50;;;;;;5075723;28;20037;-76
2021/03/25 09:07:34;;;;;;;14.75;4.38;;;20.10;35.50;;;;;;5090595;28;20032;-76
2021/03/25 09:10:25;;;;;;;13.55;4.90;;;20.10;35.70;;;;;;5075683;28;20110;-77
2021/03/25 09:12:55;;;;;;;18.48;4.65;;;20.00;35.70;;;;;;5075608;28;20039;-76
2021/03/25 09:15:21;;;;;;;14.85;5.97;;;19.90;35.50;;;;;;5075695;28;20370;-76
2021/03/25 09:17:58;;;;;;;12.93;5.55;;;19.90;35.50;;;;;;5075003;28;20051;-78
2021/03/25 09:20:31;;;;;;;10.15;4.85;;;19.80;35.70;;;;;;5075932;28;20048;-76
2021/03/25 09:22:59;;;;;;;12.50;5.18;;;19.70;36.00;;;;;;5075680;28;20519;-77
2021/03/25 09:25:27;;;;;;;14.07;5.45;;;19.60;36.20;;;;;;5075379;28;20048;-77
2021/03/25 09:28:05;;;;;;;15.15;5.35;;;19.50;35.90;;;;;;5075031;28;20044;-76
2021/03/25 09:30:38;;;;;;;14.70;5.35;;;19.50;35.50;;;;;;5075189;28;20386;-77
2021/03/25 09:33:42;;;;;;;10.63;5.20;;;19.30;35.50;;;;;;5075460;28;20028;-76
2021/03/25 09:36:18;;;;;;;12.85;5.30;;;19.20;35.70;;;;;;5073962;28;20024;-76
2021/03/25 09:38:59;;;;;;;11.35;5.07;;;19.10;35.70;;;;;;5073851;28;20122;-76
2021/03/25 09:41:25;;;;;;;8.65;4.93;;;19.00;36.60;;;;;;5075180;28;20032;-77
2021/03/25 09:44:15;;;;;;;8.40;4.53;;;18.90;36.70;;;;;;5073852;28;20074;-77
2021/03/25 09:46:51;;;;;;;9.98;5.32;;;18.80;36.80;;;;;;5077048;28;20043;-78
2021/03/25 09:49:20;;;;;;;8.70;3.80;;;18.70;37.20;;;;;;5075451;28;20127;-76
2021/03/25 09:52:06;;;;;;;8.25;4.57;;;18.60;37.30;;;;;;5074998;28;20044;-76
2021/03/25 09:54:33;;;;;;;;;;;18.40;37.20;;;;;;5074999;28;20121;-76
2021/03/25 09:57:33;;;;;;;7.88;4.07;;;18.40;37.60;;;;;;5074759;28;19932;-76
2021/03/25 10:00:10;;;;;;;10.05;4.25;;;18.30;37.90;;;;;;5075013;28;20622;-77
2021/03/25 10:02:45;;;;;;;5.07;3.70;;;18.20;37.80;;;;;;5074690;28;20036;-76
2021/03/25 10:05:27;;;;;;;6.50;3.40;;;18.20;38.40;;;;;;5074679;28;20047;-77
2021/03/25 10:08:03;;;;;;;8.55;3.58;;;18.10;38.10;;;;;;5073909;28;20028;-77
2021/03/25 10:10:47;;;;;;;6.68;3.58;;;17.90;37.80;;;;;;5074476;28;20408;-76
2021/03/25 10:13:17;;;;;;;6.63;3.30;;;17.80;38.00;;;;;;5074653;28;20086;-77
2021/03/25 10:15:54;;;;;;;6.90;3.83;;;17.50;38.60;;;;;;5074470;28;20127;-77
2021/03/25 10:18:26;;;;;;;7.30;3.90;;;17.30;38.90;;;;;;5074272;28;20085;-77
2021/03/25 10:21:36;;;;;;;9.63;3.60;;;17.20;39.30;;;;;;5074854;28;20054;-76
2021/03/25 10:24:03;;;;;;;7.03;3.50;;;17.20;39.20;;;;;;5073997;28;20131;-76
2021/03/25 10:26:38;;;;;;;6.30;3.42;;;17.10;39.90;;;;;;5074222;28;20116;-75
2021/03/25 10:29:06;;;;;;;4.78;2.80;;;17.10;39.30;;;;;;5074660;28;20074;-77
2021/03/25 10:31:39;;;;;;;3.95;2.72;;;16.90;39.50;;;;;;5074278;28;20090;-76
2021/03/25 10:34:12;;;;;;;7.50;3.22;;;16.90;39.80;;;;;;5073723;28;20094;-77
2021/03/25 10:36:47;;;;;;;3.38;2.83;;;16.80;40.40;;;;;;5073611;28;20039;-76
2021/03/25 10:39:25;;;;;;;3.97;2.08;;;16.80;40.10;;;;;;5073792;28;20076;-77
2021/03/25 10:41:52;;;;;;;6.47;2.20;;;16.70;40.20;;;;;;5074129;28;20405;-76
2021/03/25 10:44:33;;;;;;;4.45;2.28;;;16.70;40.30;;;;;;5073509;28;20044;-76
2021/03/25 10:47:16;;;;;;;3.88;2.20;;;16.70;41.00;;;;;;5072442;28;20397;-76
2021/03/25 10:49:47;;;;;;;6.97;3.08;;;16.70;40.40;;;;;;5073873;28;20040;-77
2021/03/25 10:52:31;;;;;;;4.03;2.50;;;16.50;40.10;;;;;;5074227;28;20041;-76
2021/03/25 10:55:02;;;;;;;5.13;2.58;;;16.40;40.40;;;;;;5073708;28;20044;-77
2021/03/25 10:57:29;;;;;;;5.35;2.58;;;16.30;40.20;;;;;;5089175;28;20056;-75
2021/03/25 11:00:12;;;;;;;5.43;2.95;;;15.90;41.20;;;;;;5073256;28;20067;-74
2021/03/25 11:02:42;;;;;;;5.00;3.10;;;15.80;41.30;;;;;;5073605;28;20035;-75
2021/03/25 11:05:21;;;;;;;6.63;3.25;;;15.80;41.20;;;;;;5073560;28;20032;-75
2021/03/25 11:08:01;;;;;;;5.80;3.30;;;15.90;41.10;;;;;;5073667;28;20101;-75
2021/03/25 11:10:28;;;;;;;3.85;2.63;;;15.80;41.30;;;;;;5072101;28;20441;-75
2021/03/25 11:13:06;;;;;;;8.02;3.03;;;15.80;41.50;;;;;;5073625;28;20040;-77
2021/03/25 11:15:37;;;;;;;4.32;2.55;;;15.70;41.30;;;;;;5072358;28;20040;-76
2021/03/25 11:18:20;;;;;;;3.80;2.50;;;15.70;41.40;;;;;;5073542;28;20146;-82
2021/03/25 11:20:46;;;;;;;2.10;1.90;;;15.70;41.80;;;;;;5071898;28;20045;-72
2021/03/25 11:23:19;;;;;;;5.75;2.63;;;15.60;41.80;;;;;;5071454;28;20032;-79
2021/03/25 11:25:45;;;;;;;4.05;2.47;;;15.60;42.10;;;;;;5089259;28;20040;-76
2021/03/25 11:28:14;;;;;;;7.75;2.08;;;15.50;42.00;;;;;;5072848;28;20075;-72
2021/03/25 11:30:45;;;;;;;3.90;2.30;;;15.50;42.10;;;;;;5072715;28;20037;-71
2021/03/25 11:33:38;;;;;;;5.15;2.30;;;15.40;42.30;;;;;;5072699;28;20047;-76
2021/03/25 11:36:05;;;;;;;4.65;2.22;;;15.40;42.20;;;;;;5072450;28;20106;-75
2021/03/25 11:38:44;;;;;;;3.67;2.17;;;15.30;42.30;;;;;;5055403;28;20040;-84
2021/03/25 11:41:31;;;;;;;3.42;2.25;;;15.30;42.60;;;;;;5084162;28;20036;-84
2021/03/25 11:44:01;;;;;;;3.17;2.03;;;15.30;43.00;;;;;;5075713;28;20520;-78
2021/03/25 11:46:36;;;;;;;4.28;2.60;;;15.20;43.10;;;;;;5072943;28;20493;-74
2021/03/25 11:49:10;;;;;;;9.48;2.67;;;15.20;43.00;;;;;;5072886;28;20040;-77
2021/03/25 11:51:41;;;;;;;4.93;2.05;;;15.10;43.60;;;;;;5071324;28;20097;-81
2021/03/25 11:54:27;;;;;;;4.50;1.92;;;15.10;43.00;;;;;;5071695;28;20036;-78
2021/03/25 11:57:09;;;;;;;2.97;1.63;;;15.10;43.10;;;;;;5072890;28;20056;-81
2021/03/25 11:59:39;;;;;;;4.00;2.08;;;15.10;42.80;;;;;;5072839;28;20040;-77
2021/03/25 12:02:20;;;;;;;4.35;1.48;;;15.10;43.20;;;;;;5073067;28;20130;-79
2021/03/25 12:04:47;;;;;;;2.03;1.08;;;15.00;43.30;;;;;;5072167;28;20405;-80
2021/03/25 12:07:13;;;;;;;2.33;1.55;;;15.10;43.40;;;;;;5071498;28;20045;-83
2021/03/25 12:10:00;;;;;;;4.20;1.40;;;15.10;43.40;;;;;;5072580;28;20035;-78
2021/03/25 12:12:27;;;;;;;1.92;1.30;;;15.10;43.20;;;;;;5072333;28;20052;-86
2021/03/25 12:14:53;;;;;;;2.70;1.60;;;15.10;43.40;;;;;;5073375;28;20064;-77
2021/03/25 12:17:19;;;;;;;3.00;1.58;;;15.10;43.50;;;;;;5072399;28;20037;-77
2021/03/25 12:19:46;;;;;;;5.00;1.88;;;15.10;43.40;;;;;;5072328;28;20194;-83
2021/03/25 12:22:19;;;;;;;5.80;1.83;;;15.20;43.20;;;;;;5073737;28;20128;-76
2021/03/25 12:24:45;;;;;;;1.90;1.38;;;15.20;43.40;;;;;;5074848;28;20041;-76
2021/03/25 12:27:21;;;;;;;4.22;1.60;;;15.20;43.20;;;;;;5072481;28;20111;-76
2021/03/25 12:29:47;;;;;;;4.28;1.38;;;15.20;42.90;;;;;;5072944;28;20028;-77
2021/03/25 12:32:14;;;;;;;4.57;1.90;;;15.10;42.80;;;;;;5076589;28;20032;-77
2021/03/25 12:34:40;;;;;;;2.38;1.42;;;15.10;42.40;;;;;;5076410;28;20037;-78
2021/03/25 12:37:06;;;;;;;4.93;1.52;;;15.00;42.30;;;;;;5076398;28;20043;-78
2021/03/25 12:39:32;;;;;;;2.50;1.55;;;14.90;42.80;;;;;;5075931;28;20072;-77
2021/03/25 12:41:58;;;;;;;5.80;2.13;;;14.90;43.10;;;;;;5075882;28;20047;-80
2021/03/25 12:44:24;;;;;;;2.78;1.88;;;14.90;43.10;;;;;;5076096;28;20454;-78
2021/03/25 12:46:50;;;;;;;5.18;1.70;;;14.90;42.80;;;;;;5075954;28;20036;-80
2021/03/25 12:49:16;;;;;;;2.90;1.60;;;14.90;43.20;;;;;;5076061;28;20068;-78
2021/03/25 12:51:42;;;;;;;4.18;1.90;;;14.80;43.60;;;;;;5076024;28;20040;-79
2021/03/25 12:54:07;;;;;;;3.80;1.92;;;14.80;43.50;;;;;;5075999;28;20039;-79
2021/03/25 12:56:35;;;;;;;2.28;1.40;;;14.90;43.10;;;;;;5075965;28;20053;-80
2021/03/25 12:59:04;;;;;;;2.38;1.77;;;14.90;43.30;;;;;;5075218;28;20036;-83
2021/03/25 13:01:33;;;;;;;1.80;1.55;;;14.90;43.50;;;;;;5076177;28;20036;-72
2021/03/25 13:03:59;;;;;;;3.88;1.77;;;14.90;43.40;;;;;;5075895;28;20028;-81
2021/03/25 13:06:25;;;;;;;1.95;1.60;;;14.90;42.70;;;;;;5075873;28;20051;-78
2021/03/25 13:08:52;;;;;;;2.90;2.00;;;14.90;43.10;;;;;;5075624;28;20040;-79
2021/03/25 13:11:25;;;;;;;3.42;1.80;;;14.90;43.30;;;;;;5076125;28;20041;-81
2021/03/25 13:13:51;;;;;;;2.92;1.70;;;14.90;43.40;;;;;;5075365;28;20086;-75
2021/03/25 13:16:17;;;;;;;4.25;1.90;;;14.90;42.90;;;;;;5075709;28;20404;-76
2021/03/25 13:18:43;;;;;;;2.80;1.50;;;14.90;43.10;;;;;;5075488;28;20090;-75
2021/03/25 13:21:10;;;;;;;2.92;1.50;;;14.90;43.10;;;;;;5075841;28;20506;-77
2021/03/25 13:23:37;;;;;;;3.58;1.58;;;14.90;42.70;;;;;;5057596;28;20485;-77
2021/03/25 13:26:03;;;;;;;3.85;1.65;;;14.90;42.80;;;;;;5074094;28;20043;-75
2021/03/25 13:28:30;;;;;;;1.95;1.48;;;14.90;43.00;;;;;;5075214;28;20400;-76
2021/03/25 13:30:58;;;;;;;3.95;1.77;;;14.90;42.90;;;;;;5075156;28;20036;-81
2021/03/25 13:33:24;;;;;;;1.67;1.40;;;14.90;43.10;;;;;;5075208;28;20064;-80
2021/03/25 13:35:52;;;;;;;1.83;1.52;;;14.90;43.30;;;;;;5075271;28;20079;-77